createdAt,value
2023-02-16T00:02:02.692Z,42.0
2023-02-16T00:04:33.508Z,42.0
2023-02-16T00:07:04.293Z,42.0
2023-02-16T00:09:34.914Z,42.0
2023-02-16T00:12:05.540Z,42.0
2023-02-16T00:14:46.156Z,42.0
2023-02-16T00:17:16.808Z,42.0
2023-02-16T00:19:47.424Z,42.0
2023-02-16T00:22:18.053Z,42.0
2023-02-16T00:24:48.652Z,42.0
2023-02-16T00:27:19.264Z,42.0
2023-02-16T00:29:59.887Z,43.0
2023-02-16T00:32:30.747Z,43.0
2023-02-16T00:35:01.368Z,43.0
2023-02-16T00:37:32.074Z,42.0
2023-02-16T00:42:42.734Z,43.0
2023-02-16T00:45:23.392Z,43.0
2023-02-16T00:47:53.994Z,43.0
2023-02-16T00:50:24.646Z,43.0
2023-02-16T00:52:55.376Z,43.0
2023-02-16T00:55:25.985Z,43.0
2023-02-16T00:58:06.584Z,43.0
2023-02-16T01:00:37.225Z,42.0
2023-02-16T01:03:07.822Z,42.0
2023-02-16T01:05:38.475Z,43.0
2023-02-16T01:08:09.086Z,43.0
2023-02-16T01:10:39.737Z,43.0
2023-02-16T01:13:20.340Z,43.0
2023-02-16T01:15:51.085Z,43.0
2023-02-16T01:18:21.907Z,43.0
2023-02-16T01:23:22.720Z,43.0
2023-02-16T01:25:53.374Z,43.0
2023-02-16T01:28:33.977Z,43.0
2023-02-16T01:31:05.158Z,43.0
2023-02-16T01:33:35.998Z,43.0
2023-02-16T01:36:06.652Z,43.0
2023-02-16T01:38:37.284Z,43.0
2023-02-16T01:41:07.902Z,43.0
2023-02-16T01:43:48.507Z,43.0
2023-02-16T01:46:19.188Z,43.0
2023-02-16T01:48:49.871Z,43.0
2023-02-16T01:51:20.521Z,43.0
2023-02-16T01:53:51.138Z,43.0
2023-02-16T01:56:21.754Z,43.0
2023-02-16T01:59:02.363Z,43.0
2023-02-16T02:04:02.974Z,43.0
2023-02-16T02:06:33.656Z,43.0
2023-02-16T02:09:04.272Z,43.0
2023-02-16T02:11:44.903Z,43.0
2023-02-16T02:14:15.499Z,43.0
2023-02-16T02:16:46.111Z,43.0
2023-02-16T02:19:16.734Z,43.0
2023-02-16T02:21:47.388Z,43.0
2023-02-16T02:24:18.020Z,43.0
2023-02-16T02:26:58.684Z,43.0
2023-02-16T02:29:29.302Z,43.0
2023-02-16T02:32:00.157Z,43.0
2023-02-16T02:34:30.895Z,43.0
2023-02-16T02:37:01.580Z,43.0
2023-02-16T02:39:32.218Z,43.0
2023-02-16T02:44:42.840Z,43.0
2023-02-16T02:47:13.475Z,43.0
2023-02-16T02:49:44.077Z,43.0
2023-02-16T02:52:14.772Z,43.0
2023-02-16T02:54:45.377Z,43.0
2023-02-16T02:57:26.217Z,43.0
2023-02-16T02:59:56.826Z,43.0
2023-02-16T03:02:27.549Z,43.0
2023-02-16T03:04:58.223Z,43.0
2023-02-16T03:07:28.849Z,43.0
2023-02-16T03:10:09.506Z,43.0
2023-02-16T03:12:40.129Z,43.0
2023-02-16T03:15:10.813Z,43.0
2023-02-16T03:17:41.473Z,43.0
2023-02-16T03:20:12.112Z,43.0
2023-02-16T03:25:22.830Z,43.0
2023-02-16T03:27:53.426Z,43.0
2023-02-16T03:30:34.192Z,43.0
2023-02-16T03:32:55.056Z,43.0
2023-02-16T03:35:25.675Z,43.0
2023-02-16T03:38:06.270Z,43.0
2023-02-16T03:40:46.961Z,43.0
2023-02-16T03:43:17.581Z,43.0
2023-02-16T03:45:48.324Z,43.0
2023-02-16T03:48:18.971Z,43.0
2023-02-16T03:50:49.575Z,43.0
2023-02-16T03:53:20.176Z,43.0
2023-02-16T03:56:00.871Z,43.0
2023-02-16T03:58:31.647Z,43.0
2023-02-16T04:01:02.693Z,43.0
2023-02-16T04:06:03.491Z,43.0
2023-02-16T04:08:34.138Z,43.0
2023-02-16T04:11:15.184Z,43.0
2023-02-16T04:13:45.800Z,43.0
2023-02-16T04:16:16.548Z,43.0
2023-02-16T04:18:47.252Z,43.0
2023-02-16T04:23:57.892Z,43.0
2023-02-16T04:26:28.582Z,43.0
2023-02-16T04:28:59.190Z,43.0
2023-02-16T04:31:30.002Z,43.0
2023-02-16T04:34:00.827Z,43.0
2023-02-16T04:36:31.472Z,43.0
2023-02-16T04:39:12.089Z,43.0
2023-02-16T04:41:42.777Z,43.0
2023-02-16T04:46:43.426Z,43.0
2023-02-16T04:49:14.090Z,43.0
2023-02-16T04:51:44.725Z,43.0
2023-02-16T04:54:25.346Z,43.0
2023-02-16T04:56:55.999Z,43.0
2023-02-16T04:59:26.679Z,43.0
2023-02-16T05:01:57.430Z,43.0
2023-02-16T05:04:28.213Z,43.0
2023-02-16T05:06:58.906Z,43.0
2023-02-16T05:09:39.537Z,43.0
2023-02-16T05:12:10.368Z,43.0
2023-02-16T05:14:40.969Z,43.0
2023-02-16T05:17:11.604Z,43.0
2023-02-16T05:19:42.213Z,43.0
2023-02-16T05:22:12.893Z,43.0
2023-02-16T05:27:23.518Z,43.0
2023-02-16T05:29:54.167Z,43.0
2023-02-16T05:32:25.165Z,43.0
2023-02-16T05:34:55.942Z,43.0
2023-02-16T05:37:36.601Z,43.0
2023-02-16T05:40:07.219Z,43.0
2023-02-16T05:42:37.812Z,43.0
2023-02-16T05:45:08.452Z,43.0
2023-02-16T05:47:39.052Z,43.0
2023-02-16T05:50:09.662Z,43.0
2023-02-16T05:52:50.302Z,43.0
2023-02-16T05:55:20.936Z,43.0
2023-02-16T05:57:51.689Z,43.0
2023-02-16T06:00:22.314Z,43.0
2023-02-16T06:02:53.069Z,43.0
2023-02-16T06:08:03.728Z,43.0
2023-02-16T06:10:34.417Z,43.0
2023-02-16T06:13:05.062Z,43.0
2023-02-16T06:15:35.675Z,43.0
2023-02-16T06:18:06.343Z,43.0
2023-02-16T06:20:36.956Z,43.0
2023-02-16T06:23:17.596Z,43.0
2023-02-16T06:25:48.202Z,43.0
2023-02-16T06:28:18.836Z,43.0
2023-02-16T06:30:49.449Z,44.0
2023-02-16T06:33:20.103Z,43.0
2023-02-16T06:36:00.760Z,43.0
2023-02-16T06:38:31.398Z,43.0
2023-02-16T06:41:12.271Z,43.0
2023-02-16T06:43:32.887Z,43.0
2023-02-16T06:48:43.501Z,43.0
2023-02-16T06:51:24.140Z,43.0
2023-02-16T06:53:54.787Z,43.0
2023-02-16T06:56:25.578Z,43.0
2023-02-16T06:58:48.232Z,43.0
2023-02-16T07:01:19.138Z,43.0
2023-02-16T07:03:50.001Z,43.0
2023-02-16T07:06:30.628Z,43.0
2023-02-16T07:09:01.267Z,43.0
2023-02-16T07:11:33.226Z,43.0
2023-02-16T07:14:03.821Z,43.0
2023-02-16T07:16:34.847Z,43.0
2023-02-16T07:19:05.506Z,43.0
2023-02-16T07:21:46.128Z,43.0
2023-02-16T07:24:16.721Z,43.0
2023-02-16T07:29:17.396Z,43.0
2023-02-16T07:31:48.283Z,43.0
2023-02-16T07:34:31.938Z,43.0
2023-02-16T07:37:02.589Z,43.0
2023-02-16T07:39:33.203Z,43.0
2023-02-16T07:42:03.839Z,43.0
2023-02-16T07:44:34.460Z,43.0
2023-02-16T07:47:05.215Z,43.0
2023-02-16T07:49:45.897Z,43.0
2023-02-16T07:52:16.518Z,43.0
2023-02-16T07:54:47.128Z,43.0
2023-02-16T07:57:17.782Z,43.0
2023-02-16T07:59:48.395Z,43.0
2023-02-16T08:04:59.040Z,43.0
2023-02-16T08:09:59.704Z,43.0
2023-02-16T08:12:30.351Z,43.0
2023-02-16T08:15:00.979Z,43.0
2023-02-16T08:17:31.730Z,43.0
2023-02-16T08:20:25.878Z,43.0
2023-02-16T08:22:53.065Z,43.0
2023-02-16T08:25:23.710Z,42.0
2023-02-16T08:27:54.786Z,43.0
2023-02-16T08:30:25.523Z,43.0
2023-02-16T08:32:56.224Z,43.0
2023-02-16T08:35:36.864Z,43.0
2023-02-16T08:38:07.491Z,42.0
2023-02-16T08:40:38.142Z,43.0
2023-02-16T08:43:08.756Z,43.0
2023-02-16T08:45:39.386Z,43.0
2023-02-16T08:50:50.097Z,43.0
2023-02-16T08:53:20.717Z,42.0
2023-02-16T08:55:51.353Z,42.0
2023-02-16T08:58:21.977Z,42.0
2023-02-16T09:00:52.723Z,42.0
2023-02-16T09:03:33.484Z,42.0
2023-02-16T09:06:04.391Z,42.0
2023-02-16T09:08:35.264Z,42.0
2023-02-16T09:11:06.163Z,42.0
2023-02-16T09:13:36.917Z,42.0
2023-02-16T09:16:07.567Z,42.0
2023-02-16T09:18:48.186Z,42.0
2023-02-16T09:21:18.839Z,42.0
2023-02-16T09:23:49.495Z,42.0
2023-02-16T09:26:20.121Z,42.0
2023-02-16T09:31:20.952Z,42.0
2023-02-16T09:34:02.007Z,42.0
2023-02-16T09:36:32.663Z,42.0
2023-02-16T09:39:03.333Z,42.0
2023-02-16T09:41:33.943Z,42.0
2023-02-16T09:44:04.527Z,42.0
2023-02-16T09:46:35.304Z,42.0
2023-02-16T09:49:15.921Z,42.0
2023-02-16T09:51:46.548Z,42.0
2023-02-16T09:54:17.185Z,42.0
2023-02-16T09:56:47.826Z,42.0
2023-02-16T09:59:20.840Z,42.0
2023-02-16T10:02:01.452Z,42.0
2023-02-16T10:04:32.230Z,41.0
2023-02-16T10:07:04.271Z,41.0
2023-02-16T10:12:04.887Z,41.0
2023-02-16T10:14:35.514Z,41.0
2023-02-16T10:17:16.125Z,41.0
2023-02-16T10:19:46.743Z,41.0
2023-02-16T10:22:17.688Z,41.0
2023-02-16T10:24:48.369Z,41.0
2023-02-16T10:27:18.968Z,41.0
2023-02-16T10:29:49.578Z,41.0
2023-02-16T10:32:30.224Z,41.0
2023-02-16T10:34:54.659Z,41.0
2023-02-16T10:37:25.284Z,41.0
2023-02-16T10:39:55.886Z,41.0
2023-02-16T10:41:43.252Z,41.0
2023-02-16T10:42:33.857Z,40.0
2023-02-16T10:44:40.605Z,40.0
2023-02-16T10:45:11.315Z,41.0
2023-02-16T10:47:31.960Z,41.0
2023-02-16T10:52:45.632Z,41.0
2023-02-16T10:55:16.241Z,41.0
2023-02-16T10:57:46.876Z,40.0
2023-02-16T11:00:17.508Z,40.0
2023-02-16T11:02:58.127Z,40.0
2023-02-16T11:05:28.775Z,40.0
2023-02-16T11:07:59.412Z,40.0
2023-02-16T11:10:30.058Z,39.0
2023-02-16T11:13:00.680Z,40.0
2023-02-16T11:15:31.271Z,40.0
2023-02-16T11:18:11.974Z,39.0
2023-02-16T11:20:42.604Z,40.0
2023-02-16T11:23:13.238Z,39.0
2023-02-16T11:25:43.869Z,39.0
2023-02-16T11:28:14.775Z,39.0
2023-02-16T11:33:25.404Z,40.0
2023-02-16T11:35:56.050Z,39.0
2023-02-16T11:38:26.828Z,39.0
2023-02-16T11:40:57.439Z,39.0
2023-02-16T11:43:28.045Z,39.0
2023-02-16T11:45:58.681Z,39.0
2023-02-16T11:48:39.334Z,39.0
2023-02-16T11:51:09.944Z,39.0
2023-02-16T11:53:40.548Z,39.0
2023-02-16T11:56:11.168Z,39.0
2023-02-16T11:58:41.790Z,39.0
2023-02-16T12:01:12.685Z,39.0
2023-02-16T12:03:53.422Z,39.0
2023-02-16T12:06:24.185Z,38.0
2023-02-16T12:08:54.805Z,38.0
2023-02-16T12:14:05.454Z,38.0
2023-02-16T12:16:46.128Z,39.0
2023-02-16T12:19:16.770Z,38.0
2023-02-16T12:21:47.376Z,38.0
2023-02-16T12:24:18.003Z,38.0
2023-02-16T12:26:48.657Z,38.0
2023-02-16T12:29:19.267Z,38.0
2023-02-16T12:32:00.092Z,38.0
2023-02-16T12:34:30.763Z,37.0
2023-02-16T12:37:01.393Z,37.0
2023-02-16T12:39:31.996Z,37.0
2023-02-16T12:42:02.630Z,37.0
2023-02-16T12:44:33.236Z,37.0
2023-02-16T12:47:13.866Z,37.0
2023-02-16T12:49:44.489Z,37.0
2023-02-16T12:54:45.117Z,37.0
2023-02-16T12:57:15.763Z,37.0
2023-02-16T12:59:46.361Z,37.0
2023-02-16T13:02:27.026Z,37.0
2023-02-16T13:04:57.672Z,36.0
2023-02-16T13:07:28.378Z,37.0
2023-02-16T13:09:59.001Z,37.0
2023-02-16T13:12:29.664Z,36.0
2023-02-16T13:15:10.341Z,36.0
2023-02-16T13:17:40.984Z,36.0
2023-02-16T13:20:13.731Z,35.0
2023-02-16T13:22:44.351Z,35.0
2023-02-16T13:25:15.109Z,35.0
2023-02-16T13:27:45.864Z,35.0
2023-02-16T13:30:26.651Z,34.0
2023-02-16T13:35:27.535Z,33.0
2023-02-16T13:37:58.156Z,33.0
2023-02-16T13:40:28.766Z,32.0
2023-02-16T13:42:59.426Z,32.0
2023-02-16T13:45:40.108Z,32.0
2023-02-16T13:48:10.774Z,31.0
2023-02-16T13:50:41.413Z,31.0
2023-02-16T13:53:12.031Z,31.0
2023-02-16T13:55:42.674Z,31.0
2023-02-16T13:58:13.328Z,31.0
2023-02-16T14:00:54.011Z,30.0
2023-02-16T14:03:25.727Z,30.0
2023-02-16T14:05:56.335Z,30.0
2023-02-16T14:08:27.136Z,29.0
2023-02-16T14:10:57.751Z,28.0
2023-02-16T14:16:08.694Z,28.0
2023-02-16T14:18:39.394Z,27.0
2023-02-16T14:21:10.005Z,27.0
2023-02-16T14:23:40.611Z,27.0
2023-02-16T14:26:11.259Z,27.0
2023-02-16T14:28:51.914Z,26.0
2023-02-16T14:31:22.851Z,27.0
2023-02-16T14:33:53.649Z,27.0
2023-02-16T14:36:24.290Z,27.0
2023-02-16T14:38:55.285Z,28.0
2023-02-16T14:41:25.913Z,30.0
2023-02-16T14:44:06.559Z,30.0
2023-02-16T14:46:37.350Z,31.0
2023-02-16T14:49:07.996Z,31.0
2023-02-16T14:51:38.617Z,31.0
2023-02-16T14:56:41.100Z,31.0
2023-02-16T14:59:21.692Z,31.0
2023-02-16T15:01:52.441Z,31.0
2023-02-16T15:04:23.089Z,31.0
2023-02-16T15:06:53.698Z,31.0
2023-02-16T15:09:24.459Z,31.0
2023-02-16T15:11:55.145Z,31.0
2023-02-16T15:14:35.752Z,32.0
2023-02-16T15:17:06.404Z,32.0
2023-02-16T15:19:37.002Z,32.0
2023-02-16T15:22:07.675Z,32.0
2023-02-16T15:24:38.312Z,32.0
2023-02-16T15:27:19.019Z,31.0
2023-02-16T15:29:49.651Z,31.0
2023-02-16T15:32:20.431Z,31.0
2023-02-16T15:37:21.074Z,31.0
2023-02-16T15:40:25.753Z,31.0
2023-02-16T15:42:36.833Z,31.0
2023-02-16T15:45:07.474Z,31.0
2023-02-16T15:47:38.089Z,31.0
2023-02-16T15:50:08.706Z,31.0
2023-02-16T15:52:39.307Z,31.0
2023-02-16T15:55:09.923Z,31.0
2023-02-16T15:57:50.514Z,31.0
2023-02-16T16:00:21.182Z,31.0
2023-02-16T16:02:51.818Z,31.0
2023-02-16T16:05:22.434Z,31.0
2023-02-16T16:07:53.049Z,31.0
2023-02-16T16:10:24.946Z,31.0
2023-02-16T16:13:06.594Z,32.0
2023-02-16T16:18:07.233Z,32.0
2023-02-16T16:20:37.890Z,32.0
2023-02-16T16:23:08.478Z,32.0
2023-02-16T16:25:39.132Z,32.0
2023-02-16T16:28:21.371Z,32.0
2023-02-16T16:30:52.724Z,32.0
2023-02-16T16:33:23.974Z,32.0
2023-02-16T16:35:54.601Z,32.0
2023-02-16T16:38:25.575Z,32.0
2023-02-16T16:41:06.432Z,32.0
2023-02-16T16:43:27.532Z,32.0
2023-02-16T16:45:58.445Z,32.0
2023-02-16T16:48:29.149Z,32.0
2023-02-16T16:50:59.788Z,32.0
2023-02-16T16:53:30.411Z,32.0
2023-02-16T16:58:51.085Z,32.0
2023-02-16T17:01:21.703Z,32.0
2023-02-16T17:03:52.374Z,32.0
2023-02-16T17:06:23.099Z,32.0
2023-02-16T17:08:53.728Z,32.0
2023-02-16T17:11:34.329Z,32.0
2023-02-16T17:14:04.925Z,32.0
2023-02-16T17:16:35.572Z,32.0
2023-02-16T17:19:06.263Z,32.0
2023-02-16T17:21:36.909Z,32.0
2023-02-16T17:24:17.548Z,32.0
2023-02-16T17:26:48.196Z,32.0
2023-02-16T17:29:18.804Z,32.0
2023-02-16T17:31:50.698Z,32.0
2023-02-16T17:34:21.584Z,32.0
2023-02-16T17:39:32.239Z,32.0
2023-02-16T17:42:02.853Z,32.0
2023-02-16T17:44:33.503Z,32.0
2023-02-16T17:47:04.142Z,32.0
2023-02-16T17:49:34.741Z,32.0
2023-02-16T17:52:05.364Z,32.0
2023-02-16T17:57:16.408Z,32.0
2023-02-16T17:59:47.025Z,32.0
2023-02-16T18:02:17.684Z,32.0
2023-02-16T18:04:48.378Z,32.0
2023-02-16T18:07:18.988Z,32.0
2023-02-16T18:09:59.610Z,32.0
2023-02-16T18:12:30.220Z,32.0
2023-02-16T18:15:00.877Z,31.0
2023-02-16T18:20:01.641Z,31.0
2023-02-16T18:22:42.270Z,32.0
2023-02-16T18:25:12.882Z,32.0
2023-02-16T18:27:43.506Z,32.0
2023-02-16T18:30:14.231Z,32.0
2023-02-16T18:32:45.063Z,32.0
2023-02-16T18:35:15.708Z,32.0
2023-02-16T18:37:56.388Z,32.0
2023-02-16T18:40:27.045Z,32.0
2023-02-16T18:42:57.683Z,32.0
2023-02-16T18:45:31.029Z,32.0
2023-02-16T18:48:01.633Z,32.0
2023-02-16T18:50:32.272Z,32.0
2023-02-16T18:53:12.891Z,32.0
2023-02-16T18:55:43.538Z,32.0
2023-02-16T19:00:44.164Z,32.0
2023-02-16T19:03:14.927Z,32.0
2023-02-16T19:05:45.640Z,32.0
2023-02-16T19:08:26.278Z,32.0
2023-02-16T19:10:56.939Z,32.0
2023-02-16T19:13:27.566Z,32.0
2023-02-16T19:15:58.294Z,32.0
2023-02-16T19:18:29.361Z,32.0
2023-02-16T19:21:10.021Z,32.0
2023-02-16T19:23:40.646Z,32.0
2023-02-16T19:26:11.322Z,32.0
2023-02-16T19:28:41.939Z,32.0
2023-02-16T19:31:12.810Z,32.0
2023-02-16T19:33:43.567Z,32.0
2023-02-16T19:36:24.188Z,32.0
2023-02-16T19:41:24.828Z,32.0
2023-02-16T19:43:55.424Z,32.0
2023-02-16T19:46:26.123Z,32.0
2023-02-16T19:48:56.853Z,32.0
2023-02-16T19:51:37.466Z,32.0
2023-02-16T19:54:08.157Z,32.0
2023-02-16T19:56:38.785Z,32.0
2023-02-16T19:59:09.391Z,32.0
2023-02-16T20:01:40.109Z,32.0
2023-02-16T20:04:12.854Z,32.0
2023-02-16T20:06:53.636Z,32.0
2023-02-16T20:09:24.275Z,32.0
2023-02-16T20:11:54.914Z,32.0
2023-02-16T20:14:25.552Z,32.0
2023-02-16T20:16:56.170Z,32.0
2023-02-16T20:22:06.826Z,32.0
2023-02-16T20:24:37.448Z,32.0
2023-02-16T20:27:08.077Z,32.0
2023-02-16T20:29:38.686Z,32.0
2023-02-16T20:32:09.694Z,32.0
2023-02-16T20:34:50.482Z,32.0
2023-02-16T20:37:21.157Z,32.0
2023-02-16T20:39:51.792Z,32.0
2023-02-16T20:42:22.406Z,32.0
2023-02-16T20:44:53.025Z,32.0
2023-02-16T20:47:23.640Z,32.0
2023-02-16T20:50:04.233Z,32.0
2023-02-16T20:52:34.883Z,32.0
2023-02-16T20:55:05.499Z,32.0
2023-02-16T20:57:37.628Z,32.0
2023-02-16T21:02:38.350Z,32.0
2023-02-16T21:05:18.980Z,32.0
2023-02-16T21:07:50.066Z,32.0
2023-02-16T21:10:20.727Z,32.0
2023-02-16T21:12:51.354Z,32.0
2023-02-16T21:15:21.966Z,32.0
2023-02-16T21:18:02.582Z,32.0
2023-02-16T21:20:33.227Z,32.0
2023-02-16T21:23:03.850Z,33.0
2023-02-16T21:25:34.502Z,33.0
2023-02-16T21:28:05.123Z,33.0
2023-02-16T21:30:35.799Z,33.0
2023-02-16T21:33:16.409Z,33.0
2023-02-16T21:35:47.070Z,33.0
2023-02-16T21:38:17.785Z,33.0
2023-02-16T21:43:18.447Z,33.0
2023-02-16T21:45:49.119Z,33.0
2023-02-16T21:48:29.810Z,33.0
2023-02-16T21:51:00.443Z,33.0
2023-02-16T21:53:31.098Z,32.0
2023-02-16T21:56:01.720Z,33.0
2023-02-16T21:58:32.349Z,32.0
2023-02-16T22:01:13.117Z,33.0
2023-02-16T22:03:43.771Z,33.0
2023-02-16T22:06:14.764Z,32.0
2023-02-16T22:08:45.381Z,32.0
2023-02-16T22:11:15.986Z,32.0
2023-02-16T22:13:46.619Z,32.0
2023-02-16T22:16:27.427Z,32.0
2023-02-16T22:18:58.103Z,32.0
2023-02-16T22:24:08.792Z,32.0
2023-02-16T22:26:39.437Z,32.0
2023-02-16T22:29:10.069Z,32.0
2023-02-16T22:31:50.851Z,32.0
2023-02-16T22:34:21.517Z,32.0
2023-02-16T22:36:52.139Z,32.0
2023-02-16T22:39:22.749Z,32.0
2023-02-16T22:41:53.411Z,31.0
2023-02-16T22:44:34.016Z,31.0
2023-02-16T22:47:04.639Z,31.0
2023-02-16T22:49:35.599Z,31.0
2023-02-16T22:52:06.257Z,31.0
2023-02-16T22:54:36.934Z,31.0
2023-02-16T22:57:07.561Z,30.0
2023-02-16T22:59:48.200Z,30.0
2023-02-16T23:04:48.852Z,30.0
2023-02-16T23:07:19.480Z,30.0
2023-02-16T23:09:50.100Z,30.0
2023-02-16T23:12:20.718Z,30.0
2023-02-16T23:15:01.411Z,30.0
2023-02-16T23:17:32.017Z,30.0
2023-02-16T23:20:02.665Z,30.0
2023-02-16T23:22:33.286Z,30.0
2023-02-16T23:25:03.920Z,30.0
2023-02-16T23:27:34.536Z,30.0
2023-02-16T23:30:15.310Z,31.0
2023-02-16T23:32:46.128Z,31.0
2023-02-16T23:35:16.745Z,31.0
2023-02-16T23:37:47.397Z,31.0
2023-02-16T23:40:18.107Z,31.0
2023-02-16T23:45:28.718Z,31.0
2023-02-16T23:47:59.366Z,31.0
2023-02-16T23:50:29.982Z,31.0
2023-02-16T23:53:00.640Z,31.0
2023-02-16T23:55:31.261Z,31.0
2023-02-16T23:58:11.912Z,31.0
